createdAt,value
2023-03-13T00:01:54.462Z,100516.97
2023-03-13T00:04:38.447Z,100568.66
2023-03-13T00:07:22.389Z,100539.63
2023-03-13T00:10:07.491Z,100573.31
2023-03-13T00:12:52.646Z,100547.38
2023-03-13T00:15:37.806Z,100575.53
2023-03-13T00:18:21.579Z,100579.06
2023-03-13T00:21:07.706Z,100573.72
2023-03-13T00:23:52.840Z,100567.78
2023-03-13T00:26:36.620Z,100572.84
2023-03-13T00:29:21.899Z,100578.19
2023-03-13T00:32:06.342Z,100578.13
2023-03-13T00:34:50.106Z,100562.72
2023-03-13T00:37:33.947Z,100582.53
2023-03-13T00:40:20.314Z,100581.59
2023-03-13T00:43:04.190Z,100579.16
2023-03-13T00:45:49.438Z,100586.69
2023-03-13T00:48:33.756Z,100580.91
2023-03-13T00:51:19.421Z,100576.44
2023-03-13T00:54:05.499Z,100544.66
2023-03-13T00:56:49.965Z,100578.47
2023-03-13T00:59:33.960Z,100573.94
2023-03-13T01:02:19.346Z,100589.00
2023-03-13T01:05:03.267Z,100587.50
2023-03-13T01:07:47.167Z,100584.69
2023-03-13T01:10:30.958Z,100568.13
2023-03-13T01:13:14.766Z,100587.00
2023-03-13T01:15:58.570Z,100589.91
2023-03-13T01:18:46.891Z,100588.97
2023-03-13T01:21:31.198Z,100589.81
2023-03-13T01:24:15.424Z,100593.31
2023-03-13T01:27:00.550Z,100555.38
2023-03-13T01:29:44.350Z,100596.00
2023-03-13T01:32:28.393Z,100605.59
2023-03-13T01:35:13.629Z,100594.31
2023-03-13T01:37:57.485Z,100598.03
2023-03-13T01:40:42.690Z,100599.72
2023-03-13T01:43:28.641Z,100606.84
2023-03-13T01:46:18.007Z,100582.91
2023-03-13T01:49:21.091Z,100579.31
2023-03-13T01:52:24.944Z,100626.88
2023-03-13T01:55:16.808Z,100631.94
2023-03-13T01:58:03.954Z,100638.84
2023-03-13T02:00:48.376Z,100636.16
2023-03-13T02:03:32.425Z,100652.72
2023-03-13T02:06:17.601Z,100644.94
2023-03-13T02:09:06.342Z,100638.19
2023-03-13T02:11:56.695Z,100649.47
2023-03-13T02:14:44.937Z,100639.41
2023-03-13T02:17:29.123Z,100664.63
2023-03-13T02:20:15.032Z,100627.47
2023-03-13T02:23:03.866Z,100670.78
2023-03-13T02:25:50.762Z,100665.78
2023-03-13T02:28:40.252Z,100678.72
2023-03-13T02:31:28.465Z,100674.44
2023-03-13T02:34:14.768Z,100658.03
2023-03-13T02:37:00.726Z,100658.03
2023-03-13T02:39:48.602Z,100677.03
2023-03-13T02:42:33.740Z,100683.25
2023-03-13T02:45:18.954Z,100689.25
2023-03-13T02:48:03.127Z,100683.19
2023-03-13T02:50:46.902Z,100691.88
2023-03-13T02:53:31.726Z,100700.59
2023-03-13T02:56:18.823Z,100692.75
2023-03-13T02:59:04.874Z,100701.28
2023-03-13T03:01:52.784Z,100698.00
2023-03-13T03:04:36.798Z,100697.19
2023-03-13T03:07:20.890Z,100703.31
2023-03-13T03:10:06.209Z,100686.09
2023-03-13T03:12:50.651Z,100696.34
2023-03-13T03:15:36.138Z,100724.13
2023-03-13T03:18:20.729Z,100724.00
2023-03-13T03:21:06.597Z,100728.41
2023-03-13T03:23:54.843Z,100736.50
2023-03-13T03:26:38.877Z,100726.19
2023-03-13T03:29:29.208Z,100697.69
2023-03-13T03:32:16.041Z,100733.28
2023-03-13T03:35:00.191Z,100735.22
2023-03-13T03:37:44.306Z,100723.81
2023-03-13T03:40:28.425Z,100716.16
2023-03-13T03:43:13.348Z,100739.44
2023-03-13T03:45:58.628Z,100743.88
2023-03-13T03:48:44.897Z,100745.53
2023-03-13T03:51:29.799Z,100743.84
2023-03-13T03:54:13.738Z,100752.47
2023-03-13T03:56:57.584Z,100731.56
2023-03-13T03:59:41.558Z,100750.66
2023-03-13T04:02:26.672Z,100757.72
2023-03-13T04:05:12.354Z,100768.03
2023-03-13T04:07:57.668Z,100764.41
2023-03-13T04:10:41.610Z,100722.84
2023-03-13T04:13:25.455Z,100763.59
2023-03-13T04:16:13.396Z,100780.78
2023-03-13T04:18:58.062Z,100784.38
2023-03-13T04:21:45.889Z,100784.25
2023-03-13T04:24:34.194Z,100790.19
2023-03-13T04:27:18.963Z,100786.69
2023-03-13T04:30:04.585Z,100772.97
2023-03-13T04:32:54.463Z,100802.47
2023-03-13T04:35:57.035Z,100795.41
2023-03-13T04:38:53.761Z,100801.44
2023-03-13T04:41:56.907Z,100793.66
2023-03-13T04:44:59.608Z,100785.03
2023-03-13T04:48:14.739Z,100794.50
2023-03-13T04:51:36.974Z,100816.31
2023-03-13T04:54:42.427Z,100819.81
2023-03-13T04:57:49.265Z,100829.25
2023-03-13T05:00:49.866Z,100827.41
2023-03-13T05:03:43.902Z,100831.66
2023-03-13T05:06:50.164Z,100823.00
2023-03-13T05:09:53.879Z,100841.84
2023-03-13T05:12:56.419Z,100852.91
2023-03-13T05:15:54.323Z,100850.22
2023-03-13T05:18:40.713Z,100853.56
2023-03-13T05:21:32.933Z,100849.16
2023-03-13T05:24:36.998Z,100851.72
2023-03-13T05:27:48.989Z,100853.22
2023-03-13T05:30:50.603Z,100856.84
2023-03-13T05:33:55.277Z,100857.47
2023-03-13T05:36:57.501Z,100830.28
2023-03-13T05:40:04.800Z,100861.09
2023-03-13T05:43:04.961Z,100870.47
2023-03-13T05:46:18.275Z,100879.00
2023-03-13T05:49:25.504Z,100855.19
2023-03-13T05:52:35.779Z,100868.38
2023-03-13T05:55:30.629Z,100874.25
2023-03-13T05:58:24.344Z,100875.84
2023-03-13T06:01:30.725Z,100885.31
2023-03-13T06:04:29.997Z,100838.31
2023-03-13T06:07:14.328Z,100880.53
2023-03-13T06:09:58.728Z,100883.81
2023-03-13T06:12:42.683Z,100886.38
2023-03-13T06:15:30.666Z,100793.16
2023-03-13T06:18:26.195Z,100902.09
2023-03-13T06:21:10.188Z,100905.75
2023-03-13T06:23:53.986Z,100793.31
2023-03-13T06:26:37.790Z,100909.00
2023-03-13T06:29:21.815Z,100883.88
2023-03-13T06:32:08.004Z,100896.69
2023-03-13T06:34:52.118Z,100900.16
2023-03-13T06:37:36.120Z,100874.84
2023-03-13T06:40:20.224Z,100873.34
2023-03-13T06:43:04.092Z,100903.84
2023-03-13T06:45:48.546Z,100864.84
2023-03-13T06:48:33.866Z,100907.13
2023-03-13T06:51:19.712Z,100894.63
2023-03-13T06:54:03.945Z,100888.25
2023-03-13T06:56:47.784Z,100876.63
2023-03-13T06:59:31.603Z,100899.16
2023-03-13T07:02:16.695Z,100889.53
2023-03-13T07:05:05.974Z,100908.72
2023-03-13T07:07:49.998Z,100903.69
2023-03-13T07:10:34.028Z,100878.25
2023-03-13T07:13:19.991Z,100898.16
2023-03-13T07:16:05.454Z,100898.47
2023-03-13T07:18:49.520Z,100907.28
2023-03-13T07:21:34.665Z,100901.66
2023-03-13T07:24:18.672Z,100912.50
2023-03-13T07:27:07.642Z,100888.59
2023-03-13T07:29:51.965Z,100906.66
2023-03-13T07:32:35.870Z,100899.13
2023-03-13T07:35:19.806Z,100906.03
2023-03-13T07:38:05.066Z,100885.88
2023-03-13T07:40:50.551Z,100909.13
2023-03-13T07:43:34.582Z,100905.25
2023-03-13T07:46:20.400Z,100897.63
2023-03-13T07:49:04.423Z,100882.94
2023-03-13T07:51:50.148Z,100875.72
2023-03-13T07:54:35.382Z,100894.47
2023-03-13T07:57:19.211Z,100903.78
2023-03-13T08:00:03.119Z,100901.41
2023-03-13T08:02:56.187Z,100905.91
2023-03-13T08:05:40.027Z,100911.94
2023-03-13T08:08:24.063Z,100896.59
2023-03-13T08:11:11.473Z,100888.31
2023-03-13T08:13:56.557Z,100901.78
2023-03-13T08:16:40.420Z,100907.41
2023-03-13T08:19:24.232Z,100871.63
2023-03-13T08:22:08.120Z,100887.16
2023-03-13T08:24:51.801Z,100889.09
2023-03-13T08:27:37.031Z,100883.03
2023-03-13T08:30:21.004Z,100894.41
2023-03-13T08:33:07.549Z,100887.94
2023-03-13T08:35:51.624Z,100889.63
2023-03-13T08:38:35.639Z,100883.69
2023-03-13T08:41:21.993Z,100892.44
2023-03-13T08:44:07.907Z,100897.38
2023-03-13T08:46:52.594Z,100887.88
2023-03-13T08:49:36.641Z,100853.69
2023-03-13T08:52:20.568Z,100890.91
2023-03-13T08:55:04.735Z,100896.06
2023-03-13T08:57:48.473Z,100851.94
2023-03-13T09:00:34.458Z,100886.28
2023-03-13T09:03:18.919Z,100888.66
2023-03-13T09:06:03.654Z,100888.25
2023-03-13T09:08:47.643Z,100890.91
2023-03-13T09:11:31.581Z,100877.22
2023-03-13T09:14:15.487Z,100879.66
2023-03-13T09:17:00.732Z,100894.56
2023-03-13T09:19:59.199Z,100869.50
2023-03-13T09:22:43.955Z,100880.03
2023-03-13T09:25:27.741Z,100876.25
2023-03-13T09:28:11.635Z,100880.50
2023-03-13T09:30:56.263Z,100880.00
2023-03-13T09:33:42.077Z,100878.94
2023-03-13T09:36:26.899Z,100870.25
2023-03-13T09:39:10.847Z,100879.53
2023-03-13T09:41:59.310Z,100883.59
2023-03-13T09:44:49.647Z,100883.81
2023-03-13T09:47:42.747Z,100895.03
2023-03-13T09:50:36.109Z,100904.28
2023-03-13T09:53:36.259Z,100890.91
2023-03-13T09:56:26.123Z,100870.94
2023-03-13T09:59:19.865Z,100880.69
2023-03-13T10:02:15.876Z,100856.94
2023-03-13T10:05:06.466Z,100881.25
2023-03-13T10:07:51.856Z,100874.72
2023-03-13T10:10:44.531Z,100878.25
2023-03-13T10:13:35.281Z,100825.06
2023-03-13T10:16:26.143Z,100866.69
2023-03-13T10:19:15.781Z,100867.53
2023-03-13T10:22:04.480Z,100860.28
2023-03-13T10:24:54.119Z,100859.34
2023-03-13T10:27:45.936Z,100858.94
2023-03-13T10:30:32.289Z,100852.38
2023-03-13T10:33:36.206Z,100861.03
2023-03-13T10:36:21.347Z,100852.22
2023-03-13T10:39:10.088Z,100844.09
2023-03-13T10:42:00.716Z,100840.44
2023-03-13T10:44:46.213Z,100810.38
2023-03-13T10:47:35.590Z,100845.63
2023-03-13T10:50:23.470Z,100852.75
2023-03-13T10:53:24.077Z,100849.59
2023-03-13T10:56:13.645Z,100856.25
2023-03-13T10:58:59.234Z,100846.28
2023-03-13T11:01:45.376Z,100857.22
2023-03-13T11:04:34.666Z,100815.09
2023-03-13T11:07:23.367Z,100842.72
2023-03-13T11:10:19.944Z,100841.19
2023-03-13T11:13:04.338Z,100826.19
2023-03-13T11:15:57.566Z,100829.50
2023-03-13T11:18:51.594Z,100825.81
2023-03-13T11:21:43.921Z,100822.09
2023-03-13T11:24:35.874Z,100818.06
2023-03-13T11:27:29.065Z,100807.50
2023-03-13T11:30:26.725Z,100766.97
2023-03-13T11:33:26.270Z,100759.91
2023-03-13T11:36:17.838Z,100776.84
2023-03-13T11:39:12.344Z,100754.06
2023-03-13T11:42:02.360Z,100775.53
2023-03-13T11:44:56.414Z,100771.09
2023-03-13T11:47:54.575Z,100793.78
2023-03-13T11:50:49.743Z,100797.78
2023-03-13T11:53:47.073Z,100761.13
2023-03-13T11:56:39.133Z,100786.91
2023-03-13T11:59:42.594Z,100778.34
2023-03-13T12:02:33.960Z,100785.66
2023-03-13T12:05:20.994Z,100781.22
2023-03-13T12:08:12.515Z,100784.97
2023-03-13T12:11:08.033Z,100785.50
2023-03-13T12:13:59.037Z,100786.56
2023-03-13T12:16:46.853Z,100774.47
2023-03-13T12:19:35.557Z,100738.34
2023-03-13T12:22:25.924Z,100767.09
2023-03-13T12:25:21.415Z,100766.50
2023-03-13T12:28:18.127Z,100767.00
2023-03-13T12:31:11.039Z,100770.13
2023-03-13T12:34:01.156Z,100750.91
2023-03-13T12:36:50.194Z,100768.53
2023-03-13T12:39:38.935Z,100771.09
2023-03-13T12:42:40.791Z,100768.09
2023-03-13T12:45:29.402Z,100742.19
2023-03-13T12:48:27.366Z,100775.06
2023-03-13T12:51:30.372Z,100765.69
2023-03-13T12:54:36.937Z,100765.56
2023-03-13T12:57:50.151Z,100752.88
2023-03-13T13:00:40.150Z,100760.16
2023-03-13T13:03:33.845Z,100773.63
2023-03-13T13:06:18.368Z,100776.13
2023-03-13T13:09:24.131Z,100773.09
2023-03-13T13:12:21.132Z,100773.72
2023-03-13T13:15:21.603Z,100774.03
2023-03-13T13:18:17.078Z,100770.44
2023-03-13T13:21:29.575Z,100767.56
2023-03-13T13:24:50.258Z,100776.59
2023-03-13T13:27:48.177Z,100773.47
2023-03-13T13:30:34.492Z,100769.69
2023-03-13T13:33:41.907Z,100759.75
2023-03-13T13:36:31.714Z,100775.31
2023-03-13T13:39:38.986Z,100780.56
2023-03-13T13:42:43.726Z,100772.31
2023-03-13T13:45:30.540Z,100762.41
2023-03-13T13:48:42.967Z,100764.31
2023-03-13T13:51:27.081Z,100756.78
2023-03-13T13:54:33.586Z,100749.38
2023-03-13T13:57:21.049Z,100759.28
2023-03-13T14:00:20.874Z,100766.16
2023-03-13T14:03:17.696Z,100764.97
2023-03-13T14:06:12.517Z,100765.13
2023-03-13T14:09:02.826Z,100754.56
2023-03-13T14:11:47.523Z,100762.06
2023-03-13T14:14:31.671Z,100767.09
2023-03-13T14:17:15.694Z,100776.25
2023-03-13T14:19:59.637Z,100767.97
2023-03-13T14:22:49.174Z,100768.44
2023-03-13T14:25:45.909Z,100767.34
2023-03-13T14:28:30.699Z,100755.06
2023-03-13T14:31:23.898Z,100769.25
2023-03-13T14:34:10.634Z,100768.00
2023-03-13T14:37:04.513Z,100775.22
2023-03-13T14:39:56.502Z,100760.97
2023-03-13T14:42:42.871Z,100769.94
2023-03-13T14:45:31.180Z,100601.16
2023-03-13T14:48:21.604Z,100762.31
2023-03-13T14:51:15.552Z,100719.88
2023-03-13T14:54:01.914Z,100707.09
2023-03-13T14:56:47.714Z,100761.75
2023-03-13T14:59:31.887Z,100758.91
2023-03-13T15:02:20.722Z,100759.00
2023-03-13T15:05:07.498Z,100758.34
2023-03-13T15:07:55.642Z,100724.16
2023-03-13T15:10:40.941Z,100758.88
2023-03-13T15:13:29.449Z,100755.38
2023-03-13T15:16:17.471Z,100756.44
2023-03-13T15:19:01.488Z,100753.72
2023-03-13T15:21:45.339Z,100755.09
2023-03-13T15:24:29.349Z,100759.81
2023-03-13T15:27:18.538Z,100725.81
2023-03-13T15:30:03.885Z,100752.06
2023-03-13T15:32:48.990Z,100754.41
2023-03-13T15:35:34.306Z,100767.41
2023-03-13T15:38:20.671Z,100773.56
2023-03-13T15:41:05.130Z,100741.25
2023-03-13T15:43:52.696Z,100772.56
2023-03-13T15:46:38.700Z,100739.41
2023-03-13T15:49:22.608Z,100785.91
2023-03-13T15:52:17.636Z,100771.09
2023-03-13T15:55:01.456Z,100788.09
2023-03-13T15:57:48.248Z,100783.06
2023-03-13T16:00:32.133Z,100795.00
2023-03-13T16:03:19.422Z,100779.72
2023-03-13T16:06:03.360Z,100787.66
2023-03-13T16:08:47.804Z,100787.72
2023-03-13T16:11:31.702Z,100791.56
2023-03-13T16:14:15.493Z,100789.69
2023-03-13T16:16:59.649Z,100780.22
2023-03-13T16:19:45.645Z,100790.94
2023-03-13T16:22:29.639Z,100781.88
2023-03-13T16:25:14.332Z,100787.31
2023-03-13T16:27:58.434Z,100788.13
2023-03-13T16:30:43.897Z,100799.50
2023-03-13T16:33:28.031Z,100796.97
2023-03-13T16:36:16.670Z,100811.09
2023-03-13T16:39:02.189Z,100809.31
2023-03-13T16:41:46.308Z,100791.59
2023-03-13T16:44:30.175Z,100807.69
2023-03-13T16:47:21.768Z,100811.75
2023-03-13T16:50:13.867Z,100776.97
2023-03-13T16:52:59.037Z,100815.94
2023-03-13T16:55:42.978Z,100822.06
2023-03-13T16:58:26.898Z,100823.91
2023-03-13T17:01:11.204Z,100790.78
2023-03-13T17:03:55.048Z,100821.09
2023-03-13T17:06:41.452Z,100827.31
2023-03-13T17:09:26.853Z,100816.19
2023-03-13T17:12:10.719Z,100821.13
2023-03-13T17:14:54.570Z,100823.69
2023-03-13T17:17:39.624Z,100828.59
2023-03-13T17:20:25.497Z,100817.41
2023-03-13T17:23:11.328Z,100810.22
2023-03-13T17:25:56.602Z,100829.66
2023-03-13T17:28:40.419Z,100832.00
2023-03-13T17:31:26.681Z,100829.31
2023-03-13T17:34:10.796Z,100834.94
2023-03-13T17:36:54.561Z,100835.28
2023-03-13T17:39:39.066Z,100833.69
2023-03-13T17:42:24.498Z,100833.59
2023-03-13T17:45:09.639Z,100839.88
2023-03-13T17:47:54.399Z,100831.84
2023-03-13T17:50:39.437Z,100831.94
2023-03-13T17:53:23.165Z,100813.72
2023-03-13T17:56:14.157Z,100830.22
2023-03-13T17:59:00.753Z,100833.84
2023-03-13T18:01:45.369Z,100839.06
2023-03-13T18:04:29.157Z,100838.13
2023-03-13T18:07:18.192Z,100833.97
2023-03-13T18:10:02.299Z,100803.75
2023-03-13T18:12:47.928Z,100841.25
2023-03-13T18:15:33.147Z,100833.84
2023-03-13T18:18:18.076Z,100844.78
2023-03-13T18:21:02.115Z,100841.34
2023-03-13T18:23:46.223Z,100836.16
2023-03-13T18:26:32.827Z,100850.47
2023-03-13T18:29:20.407Z,100841.75
2023-03-13T18:32:06.225Z,100842.19
2023-03-13T18:34:50.168Z,100839.38
2023-03-13T18:37:34.704Z,100803.69
2023-03-13T18:40:20.883Z,100836.78
2023-03-13T18:43:05.022Z,100842.81
2023-03-13T18:45:49.446Z,100819.25
2023-03-13T18:48:34.936Z,100838.16
2023-03-13T18:51:20.542Z,100796.78
2023-03-13T18:54:04.767Z,100791.66
2023-03-13T18:56:49.369Z,100798.84
2023-03-13T18:59:33.530Z,100801.31
2023-03-13T19:02:19.095Z,100842.09
2023-03-13T19:05:05.268Z,100800.47
2023-03-13T19:07:49.444Z,100797.03
2023-03-13T19:10:34.666Z,100801.28
2023-03-13T19:13:19.015Z,100839.41
2023-03-13T19:16:03.128Z,100804.97
2023-03-13T19:18:48.472Z,100837.06
2023-03-13T19:21:33.909Z,100832.09
2023-03-13T19:24:17.833Z,100794.47
2023-03-13T19:27:01.796Z,100831.25
2023-03-13T19:29:46.477Z,100807.81
2023-03-13T19:32:30.296Z,100829.59
2023-03-13T19:35:16.779Z,100815.13
2023-03-13T19:38:01.991Z,100834.03
2023-03-13T19:40:46.079Z,100828.91
2023-03-13T19:43:35.056Z,100821.13
2023-03-13T19:46:29.612Z,100827.66
2023-03-13T19:49:20.318Z,100833.53
2023-03-13T19:52:04.566Z,100833.88
2023-03-13T19:55:00.857Z,100833.31
2023-03-13T19:57:50.803Z,100838.72
2023-03-13T20:00:37.584Z,100814.31
2023-03-13T20:03:22.874Z,100832.59
2023-03-13T20:06:10.030Z,100825.59
2023-03-13T20:08:56.440Z,100823.72
2023-03-13T20:11:41.806Z,100827.16
2023-03-13T20:14:25.766Z,100828.25
2023-03-13T20:17:09.950Z,100797.84
2023-03-13T20:19:53.958Z,100827.06
2023-03-13T20:22:38.207Z,100818.78
2023-03-13T20:25:24.114Z,100816.31
2023-03-13T20:28:10.622Z,100818.97
2023-03-13T20:30:56.000Z,100820.63
2023-03-13T20:33:40.414Z,100795.63
2023-03-13T20:36:25.011Z,100792.34
2023-03-13T20:39:09.443Z,100772.47
2023-03-13T20:41:54.513Z,100801.78
2023-03-13T20:44:39.924Z,100798.25
2023-03-13T20:47:23.814Z,100803.31
2023-03-13T20:50:09.067Z,100793.13
2023-03-13T20:52:52.918Z,100796.72
2023-03-13T20:55:38.695Z,100794.00
2023-03-13T20:58:22.950Z,100791.38
2023-03-13T21:01:09.027Z,100786.19
2023-03-13T21:03:52.863Z,100740.41
2023-03-13T21:06:36.540Z,100788.81
2023-03-13T21:09:20.325Z,100779.25
2023-03-13T21:12:04.327Z,100741.22
2023-03-13T21:14:49.289Z,100771.31
2023-03-13T21:17:35.112Z,100782.66
2023-03-13T21:20:18.995Z,100754.94
2023-03-13T21:23:02.732Z,100781.63
2023-03-13T21:25:46.576Z,100775.63
2023-03-13T21:28:30.934Z,100773.94
2023-03-13T21:31:16.660Z,100769.63
2023-03-13T21:34:02.012Z,100765.41
2023-03-13T21:36:45.864Z,100761.94
2023-03-13T21:39:29.778Z,100764.41
2023-03-13T21:42:14.418Z,100754.84
2023-03-13T21:44:59.121Z,100765.34
2023-03-13T21:47:42.914Z,100764.47
2023-03-13T21:50:28.080Z,100718.66
2023-03-13T21:53:11.938Z,100759.50
2023-03-13T21:55:55.740Z,100765.75
2023-03-13T21:58:39.459Z,100762.28
2023-03-13T22:01:23.319Z,100757.84
2023-03-13T22:04:07.269Z,100730.25
2023-03-13T22:06:52.634Z,100757.97
2023-03-13T22:09:36.552Z,100726.00
2023-03-13T22:12:23.717Z,100741.75
2023-03-13T22:15:08.738Z,100737.34
2023-03-13T22:17:52.647Z,100754.53
2023-03-13T22:20:36.480Z,100757.13
2023-03-13T22:23:21.587Z,100758.19
2023-03-13T22:26:06.070Z,100753.78
2023-03-13T22:28:49.821Z,100758.00
2023-03-13T22:31:33.703Z,100751.88
2023-03-13T22:34:17.504Z,100743.22
2023-03-13T22:37:01.842Z,100755.31
2023-03-13T22:39:46.941Z,100750.09
2023-03-13T22:42:30.807Z,100746.56
2023-03-13T22:45:14.540Z,100729.41
2023-03-13T22:47:58.247Z,100717.28
2023-03-13T22:50:42.196Z,100732.03
2023-03-13T22:53:26.354Z,100731.13
2023-03-13T22:56:13.102Z,100718.13
2023-03-13T22:58:56.828Z,100724.94
2023-03-13T23:01:40.496Z,100706.06
2023-03-13T23:04:24.352Z,100722.50
2023-03-13T23:07:08.087Z,100727.72
2023-03-13T23:09:51.925Z,100723.31
2023-03-13T23:12:37.313Z,100728.56
2023-03-13T23:15:21.117Z,100724.13
2023-03-13T23:18:05.130Z,100665.38
2023-03-13T23:20:48.976Z,100705.00
2023-03-13T23:23:32.983Z,100722.38
2023-03-13T23:26:17.752Z,100714.63
2023-03-13T23:29:02.960Z,100708.59
2023-03-13T23:31:46.789Z,100703.53
2023-03-13T23:34:30.672Z,100688.88
2023-03-13T23:37:14.349Z,100695.69
2023-03-13T23:39:59.320Z,100687.88
2023-03-13T23:42:46.363Z,100690.44
2023-03-13T23:45:32.152Z,100689.63
2023-03-13T23:48:16.207Z,100677.47
2023-03-13T23:50:59.978Z,100661.84
2023-03-13T23:53:44.815Z,100676.59
2023-03-13T23:56:29.641Z,100649.03
2023-03-13T23:59:13.496Z,100672.34
